sensor_id;sensor_type;location;lat;lon;timestamp;P1;durP1;ratioP1;P2;durP2;ratioP2
8281;SDS011;25606;42.686;23.136;2023-09-08T00:01:20;0.73;;;0.73;;
8281;SDS011;25606;42.686;23.136;2023-09-08T00:03:47;0.60;;;0.60;;
8281;SDS011;25606;42.686;23.136;2023-09-08T00:06:14;0.50;;;0.50;;
8281;SDS011;25606;42.686;23.136;2023-09-08T00:08:42;0.47;;;0.47;;
8281;SDS011;25606;42.686;23.136;2023-09-08T00:11:10;1.67;;;0.87;;
8281;SDS011;25606;42.686;23.136;2023-09-08T00:13:38;0.57;;;0.57;;
8281;SDS011;25606;42.686;23.136;2023-09-08T00:16:05;0.50;;;0.50;;
8281;SDS011;25606;42.686;23.136;2023-09-08T00:18:35;0.73;;;0.70;;
8281;SDS011;25606;42.686;23.136;2023-09-08T00:21:02;0.50;;;0.50;;
8281;SDS011;25606;42.686;23.136;2023-09-08T00:23:30;0.60;;;0.60;;
8281;SDS011;25606;42.686;23.136;2023-09-08T00:25:57;0.60;;;0.60;;
8281;SDS011;25606;42.686;23.136;2023-09-08T00:28:26;0.57;;;0.57;;
8281;SDS011;25606;42.686;23.136;2023-09-08T00:30:53;0.60;;;0.60;;
8281;SDS011;25606;42.686;23.136;2023-09-08T00:33:20;0.73;;;0.73;;
8281;SDS011;25606;42.686;23.136;2023-09-08T00:35:48;0.53;;;0.53;;
8281;SDS011;25606;42.686;23.136;2023-09-08T00:38:15;0.57;;;0.57;;
8281;SDS011;25606;42.686;23.136;2023-09-08T00:40:48;0.97;;;0.97;;
8281;SDS011;25606;42.686;23.136;2023-09-08T00:43:25;0.77;;;0.77;;
8281;SDS011;25606;42.686;23.136;2023-09-08T00:45:53;0.60;;;0.60;;
8281;SDS011;25606;42.686;23.136;2023-09-08T00:48:21;0.73;;;0.73;;
8281;SDS011;25606;42.686;23.136;2023-09-08T00:50:48;0.60;;;0.60;;
8281;SDS011;25606;42.686;23.136;2023-09-08T00:53:16;0.50;;;0.50;;
8281;SDS011;25606;42.686;23.136;2023-09-08T00:55:43;1.00;;;0.93;;
8281;SDS011;25606;42.686;23.136;2023-09-08T00:58:12;0.60;;;0.60;;
8281;SDS011;25606;42.686;23.136;2023-09-08T01:00:40;0.60;;;0.60;;
8281;SDS011;25606;42.686;23.136;2023-09-08T01:03:08;0.80;;;0.77;;
8281;SDS011;25606;42.686;23.136;2023-09-08T01:05:35;0.63;;;0.63;;
8281;SDS011;25606;42.686;23.136;2023-09-08T01:08:03;0.70;;;0.70;;
8281;SDS011;25606;42.686;23.136;2023-09-08T01:10:30;0.50;;;0.50;;
8281;SDS011;25606;42.686;23.136;2023-09-08T01:12:58;0.60;;;0.60;;
8281;SDS011;25606;42.686;23.136;2023-09-08T01:15:25;0.77;;;0.77;;
8281;SDS011;25606;42.686;23.136;2023-09-08T01:17:54;0.70;;;0.70;;
8281;SDS011;25606;42.686;23.136;2023-09-08T01:20:22;0.63;;;0.63;;
8281;SDS011;25606;42.686;23.136;2023-09-08T01:25:33;0.87;;;0.77;;
8281;SDS011;25606;42.686;23.136;2023-09-08T01:28:02;0.73;;;0.70;;
8281;SDS011;25606;42.686;23.136;2023-09-08T01:30:30;1.23;;;1.13;;
8281;SDS011;25606;42.686;23.136;2023-09-08T01:32:58;0.63;;;0.60;;
8281;SDS011;25606;42.686;23.136;2023-09-08T01:35:26;0.97;;;0.90;;
8281;SDS011;25606;42.686;23.136;2023-09-08T01:37:54;0.87;;;0.83;;
8281;SDS011;25606;42.686;23.136;2023-09-08T01:40:21;0.63;;;0.63;;
8281;SDS011;25606;42.686;23.136;2023-09-08T01:42:50;0.50;;;0.50;;
8281;SDS011;25606;42.686;23.136;2023-09-08T01:45:17;0.97;;;0.93;;
8281;SDS011;25606;42.686;23.136;2023-09-08T01:47:44;0.47;;;0.47;;
8281;SDS011;25606;42.686;23.136;2023-09-08T01:50:12;1.00;;;0.97;;
8281;SDS011;25606;42.686;23.136;2023-09-08T01:52:40;0.53;;;0.53;;
8281;SDS011;25606;42.686;23.136;2023-09-08T01:55:07;0.60;;;0.60;;
8281;SDS011;25606;42.686;23.136;2023-09-08T01:57:37;0.90;;;0.87;;
8281;SDS011;25606;42.686;23.136;2023-09-08T02:00:06;0.50;;;0.50;;
8281;SDS011;25606;42.686;23.136;2023-09-08T02:02:34;0.60;;;0.60;;
8281;SDS011;25606;42.686;23.136;2023-09-08T02:05:01;0.57;;;0.57;;
8281;SDS011;25606;42.686;23.136;2023-09-08T02:07:28;0.47;;;0.47;;
8281;SDS011;25606;42.686;23.136;2023-09-08T02:09:56;0.43;;;0.43;;
8281;SDS011;25606;42.686;23.136;2023-09-08T02:12:23;0.50;;;0.50;;
8281;SDS011;25606;42.686;23.136;2023-09-08T02:14:51;0.53;;;0.53;;
8281;SDS011;25606;42.686;23.136;2023-09-08T02:17:19;0.40;;;0.40;;
8281;SDS011;25606;42.686;23.136;2023-09-08T02:19:47;0.47;;;0.47;;
8281;SDS011;25606;42.686;23.136;2023-09-08T02:22:14;0.57;;;0.57;;
8281;SDS011;25606;42.686;23.136;2023-09-08T02:24:41;0.50;;;0.50;;
8281;SDS011;25606;42.686;23.136;2023-09-08T02:27:08;0.47;;;0.47;;
8281;SDS011;25606;42.686;23.136;2023-09-08T02:29:36;0.43;;;0.43;;
8281;SDS011;25606;42.686;23.136;2023-09-08T02:32:03;0.63;;;0.63;;
8281;SDS011;25606;42.686;23.136;2023-09-08T02:34:34;0.50;;;0.50;;
8281;SDS011;25606;42.686;23.136;2023-09-08T02:37:03;0.57;;;0.57;;
8281;SDS011;25606;42.686;23.136;2023-09-08T02:39:31;0.70;;;0.70;;
8281;SDS011;25606;42.686;23.136;2023-09-08T02:41:59;0.47;;;0.47;;
8281;SDS011;25606;42.686;23.136;2023-09-08T02:44:26;0.60;;;0.60;;
8281;SDS011;25606;42.686;23.136;2023-09-08T02:46:54;0.53;;;0.53;;
8281;SDS011;25606;42.686;23.136;2023-09-08T02:49:22;0.50;;;0.50;;
8281;SDS011;25606;42.686;23.136;2023-09-08T02:51:50;0.53;;;0.53;;
8281;SDS011;25606;42.686;23.136;2023-09-08T02:54:18;0.50;;;0.50;;
8281;SDS011;25606;42.686;23.136;2023-09-08T02:56:45;0.37;;;0.37;;
8281;SDS011;25606;42.686;23.136;2023-09-08T02:59:12;0.40;;;0.40;;
8281;SDS011;25606;42.686;23.136;2023-09-08T03:01:39;0.40;;;0.40;;
8281;SDS011;25606;42.686;23.136;2023-09-08T03:04:07;0.57;;;0.57;;
8281;SDS011;25606;42.686;23.136;2023-09-08T03:06:34;0.30;;;0.30;;
8281;SDS011;25606;42.686;23.136;2023-09-08T03:09:03;0.33;;;0.33;;
8281;SDS011;25606;42.686;23.136;2023-09-08T03:11:30;0.37;;;0.37;;
8281;SDS011;25606;42.686;23.136;2023-09-08T03:13:57;0.23;;;0.23;;
8281;SDS011;25606;42.686;23.136;2023-09-08T03:16:25;0.33;;;0.33;;
8281;SDS011;25606;42.686;23.136;2023-09-08T03:18:52;0.30;;;0.30;;
8281;SDS011;25606;42.686;23.136;2023-09-08T03:21:19;0.43;;;0.43;;
8281;SDS011;25606;42.686;23.136;2023-09-08T03:23:47;0.33;;;0.33;;
8281;SDS011;25606;42.686;23.136;2023-09-08T03:26:15;0.33;;;0.33;;
8281;SDS011;25606;42.686;23.136;2023-09-08T03:28:43;0.37;;;0.37;;
8281;SDS011;25606;42.686;23.136;2023-09-08T03:31:10;0.30;;;0.30;;
8281;SDS011;25606;42.686;23.136;2023-09-08T03:33:37;0.20;;;0.20;;
8281;SDS011;25606;42.686;23.136;2023-09-08T03:36:05;0.27;;;0.27;;
8281;SDS011;25606;42.686;23.136;2023-09-08T03:38:32;0.30;;;0.30;;
8281;SDS011;25606;42.686;23.136;2023-09-08T03:41:02;0.27;;;0.27;;
8281;SDS011;25606;42.686;23.136;2023-09-08T03:43:30;0.23;;;0.23;;
8281;SDS011;25606;42.686;23.136;2023-09-08T03:45:58;0.30;;;0.30;;
8281;SDS011;25606;42.686;23.136;2023-09-08T03:48:25;0.33;;;0.33;;
8281;SDS011;25606;42.686;23.136;2023-09-08T03:50:52;0.30;;;0.30;;
8281;SDS011;25606;42.686;23.136;2023-09-08T03:53:19;0.33;;;0.33;;
8281;SDS011;25606;42.686;23.136;2023-09-08T03:55:47;0.27;;;0.27;;
8281;SDS011;25606;42.686;23.136;2023-09-08T03:58:14;0.33;;;0.33;;
8281;SDS011;25606;42.686;23.136;2023-09-08T04:00:43;0.37;;;0.37;;
8281;SDS011;25606;42.686;23.136;2023-09-08T04:03:10;0.27;;;0.27;;
8281;SDS011;25606;42.686;23.136;2023-09-08T04:05:38;0.30;;;0.30;;
8281;SDS011;25606;42.686;23.136;2023-09-08T04:08:05;0.57;;;0.57;;
8281;SDS011;25606;42.686;23.136;2023-09-08T04:10:32;0.40;;;0.40;;
8281;SDS011;25606;42.686;23.136;2023-09-08T04:13:00;0.30;;;0.30;;
8281;SDS011;25606;42.686;23.136;2023-09-08T04:15:27;0.43;;;0.43;;
8281;SDS011;25606;42.686;23.136;2023-09-08T04:17:56;0.27;;;0.27;;
8281;SDS011;25606;42.686;23.136;2023-09-08T04:20:23;0.37;;;0.37;;
8281;SDS011;25606;42.686;23.136;2023-09-08T04:22:50;0.27;;;0.27;;
8281;SDS011;25606;42.686;23.136;2023-09-08T04:25:18;0.23;;;0.23;;
8281;SDS011;25606;42.686;23.136;2023-09-08T04:27:45;0.27;;;0.27;;
8281;SDS011;25606;42.686;23.136;2023-09-08T04:30:13;0.20;;;0.20;;
8281;SDS011;25606;42.686;23.136;2023-09-08T04:32:40;0.27;;;0.27;;
8281;SDS011;25606;42.686;23.136;2023-09-08T04:35:09;0.30;;;0.30;;
8281;SDS011;25606;42.686;23.136;2023-09-08T04:37:36;0.20;;;0.20;;
8281;SDS011;25606;42.686;23.136;2023-09-08T04:40:04;0.20;;;0.20;;
8281;SDS011;25606;42.686;23.136;2023-09-08T04:42:32;0.23;;;0.23;;
8281;SDS011;25606;42.686;23.136;2023-09-08T04:44:59;0.27;;;0.27;;
8281;SDS011;25606;42.686;23.136;2023-09-08T04:47:26;0.23;;;0.23;;
8281;SDS011;25606;42.686;23.136;2023-09-08T04:49:54;0.27;;;0.27;;
8281;SDS011;25606;42.686;23.136;2023-09-08T04:52:22;0.30;;;0.30;;
8281;SDS011;25606;42.686;23.136;2023-09-08T04:54:50;0.37;;;0.37;;
8281;SDS011;25606;42.686;23.136;2023-09-08T04:57:17;0.33;;;0.33;;
8281;SDS011;25606;42.686;23.136;2023-09-08T04:59:44;0.63;;;0.63;;
8281;SDS011;25606;42.686;23.136;2023-09-08T05:02:12;0.33;;;0.33;;
8281;SDS011;25606;42.686;23.136;2023-09-08T05:04:40;0.50;;;0.50;;
8281;SDS011;25606;42.686;23.136;2023-09-08T05:07:07;0.47;;;0.47;;
8281;SDS011;25606;42.686;23.136;2023-09-08T05:09:36;0.43;;;0.43;;
8281;SDS011;25606;42.686;23.136;2023-09-08T05:12:04;0.50;;;0.50;;
8281;SDS011;25606;42.686;23.136;2023-09-08T05:14:32;0.63;;;0.63;;
8281;SDS011;25606;42.686;23.136;2023-09-08T05:16:59;0.50;;;0.50;;
8281;SDS011;25606;42.686;23.136;2023-09-08T05:19:26;0.87;;;0.80;;
8281;SDS011;25606;42.686;23.136;2023-09-08T05:21:54;0.77;;;0.73;;
8281;SDS011;25606;42.686;23.136;2023-09-08T05:24:21;0.73;;;0.70;;
8281;SDS011;25606;42.686;23.136;2023-09-08T05:26:52;1.20;;;1.03;;
8281;SDS011;25606;42.686;23.136;2023-09-08T05:29:19;1.37;;;1.00;;
8281;SDS011;25606;42.686;23.136;2023-09-08T05:31:47;2.37;;;1.33;;
8281;SDS011;25606;42.686;23.136;2023-09-08T05:34:14;1.00;;;0.83;;
8281;SDS011;25606;42.686;23.136;2023-09-08T05:36:41;1.00;;;0.83;;
8281;SDS011;25606;42.686;23.136;2023-09-08T05:39:09;1.10;;;0.90;;
8281;SDS011;25606;42.686;23.136;2023-09-08T05:41:38;1.53;;;1.07;;
8281;SDS011;25606;42.686;23.136;2023-09-08T05:44:07;1.90;;;1.10;;
8281;SDS011;25606;42.686;23.136;2023-09-08T05:46:34;2.57;;;1.37;;
8281;SDS011;25606;42.686;23.136;2023-09-08T05:49:01;4.03;;;2.00;;
8281;SDS011;25606;42.686;23.136;2023-09-08T05:51:29;4.57;;;1.67;;
8281;SDS011;25606;42.686;23.136;2023-09-08T05:53:56;4.97;;;1.83;;
8281;SDS011;25606;42.686;23.136;2023-09-08T05:56:24;13.27;;;3.40;;
8281;SDS011;25606;42.686;23.136;2023-09-08T05:58:51;9.33;;;2.60;;
8281;SDS011;25606;42.686;23.136;2023-09-08T06:01:20;14.70;;;3.57;;
8281;SDS011;25606;42.686;23.136;2023-09-08T06:03:47;15.37;;;3.43;;
8281;SDS011;25606;42.686;23.136;2023-09-08T06:06:15;15.40;;;3.47;;
8281;SDS011;25606;42.686;23.136;2023-09-08T06:08:42;16.77;;;3.67;;
8281;SDS011;25606;42.686;23.136;2023-09-08T06:11:09;15.20;;;3.65;;
8281;SDS011;25606;42.686;23.136;2023-09-08T06:13:37;13.20;;;2.97;;
8281;SDS011;25606;42.686;23.136;2023-09-08T06:16:04;20.10;;;4.25;;
8281;SDS011;25606;42.686;23.136;2023-09-08T06:18:34;21.85;;;4.45;;
8281;SDS011;25606;42.686;23.136;2023-09-08T06:21:05;20.88;;;4.50;;
8281;SDS011;25606;42.686;23.136;2023-09-08T06:23:33;34.90;;;8.38;;
8281;SDS011;25606;42.686;23.136;2023-09-08T06:26:00;20.52;;;5.35;;
8281;SDS011;25606;42.686;23.136;2023-09-08T06:28:28;49.38;;;14.00;;
8281;SDS011;25606;42.686;23.136;2023-09-08T06:30:55;85.68;;;70.70;;
8281;SDS011;25606;42.686;23.136;2023-09-08T06:33:22;78.93;;;70.45;;
8281;SDS011;25606;42.686;23.136;2023-09-08T06:35:51;23.33;;;4.95;;
8281;SDS011;25606;42.686;23.136;2023-09-08T06:38:19;28.08;;;6.95;;
8281;SDS011;25606;42.686;23.136;2023-09-08T06:40:46;36.85;;;20.40;;
8281;SDS011;25606;42.686;23.136;2023-09-08T06:43:14;58.90;;;38.58;;
8281;SDS011;25606;42.686;23.136;2023-09-08T06:45:42;54.65;;;31.55;;
8281;SDS011;25606;42.686;23.136;2023-09-08T06:48:09;78.07;;;45.92;;
8281;SDS011;25606;42.686;23.136;2023-09-08T06:50:36;73.32;;;54.72;;
8281;SDS011;25606;42.686;23.136;2023-09-08T06:53:05;49.45;;;10.18;;
8281;SDS011;25606;42.686;23.136;2023-09-08T06:55:32;36.45;;;7.55;;
8281;SDS011;25606;42.686;23.136;2023-09-08T06:57:59;19.83;;;4.47;;
8281;SDS011;25606;42.686;23.136;2023-09-08T07:00:27;20.20;;;4.35;;
8281;SDS011;25606;42.686;23.136;2023-09-08T07:02:54;19.65;;;4.15;;
8281;SDS011;25606;42.686;23.136;2023-09-08T07:05:21;23.52;;;4.75;;
8281;SDS011;25606;42.686;23.136;2023-09-08T07:10:37;12.00;;;3.10;;
8281;SDS011;25606;42.686;23.136;2023-09-08T07:13:04;13.17;;;3.13;;
8281;SDS011;25606;42.686;23.136;2023-09-08T07:15:31;14.00;;;3.53;;
8281;SDS011;25606;42.686;23.136;2023-09-08T07:17:59;8.90;;;2.47;;
8281;SDS011;25606;42.686;23.136;2023-09-08T07:20:26;10.00;;;2.77;;
8281;SDS011;25606;42.686;23.136;2023-09-08T07:22:53;8.60;;;2.47;;
8281;SDS011;25606;42.686;23.136;2023-09-08T07:25:20;10.40;;;2.77;;
8281;SDS011;25606;42.686;23.136;2023-09-08T07:27:49;10.77;;;2.97;;
8281;SDS011;25606;42.686;23.136;2023-09-08T07:30:18;8.70;;;2.73;;
8281;SDS011;25606;42.686;23.136;2023-09-08T07:32:46;8.80;;;2.57;;
8281;SDS011;25606;42.686;23.136;2023-09-08T07:35:13;14.00;;;3.90;;
8281;SDS011;25606;42.686;23.136;2023-09-08T07:37:42;15.00;;;3.47;;
8281;SDS011;25606;42.686;23.136;2023-09-08T07:40:09;9.70;;;2.60;;
8281;SDS011;25606;42.686;23.136;2023-09-08T07:42:37;16.50;;;3.90;;
8281;SDS011;25606;42.686;23.136;2023-09-08T07:45:06;15.13;;;3.85;;
8281;SDS011;25606;42.686;23.136;2023-09-08T07:47:34;9.48;;;2.72;;
8281;SDS011;25606;42.686;23.136;2023-09-08T07:50:16;16.95;;;4.75;;
8281;SDS011;25606;42.686;23.136;2023-09-08T07:52:43;9.90;;;2.83;;
8281;SDS011;25606;42.686;23.136;2023-09-08T07:55:10;8.95;;;2.53;;
8281;SDS011;25606;42.686;23.136;2023-09-08T07:57:38;14.00;;;3.53;;
8281;SDS011;25606;42.686;23.136;2023-09-08T08:00:07;8.40;;;2.47;;
8281;SDS011;25606;42.686;23.136;2023-09-08T08:02:36;11.70;;;3.00;;
8281;SDS011;25606;42.686;23.136;2023-09-08T08:05:04;15.63;;;4.03;;
8281;SDS011;25606;42.686;23.136;2023-09-08T08:07:32;12.20;;;3.08;;
8281;SDS011;25606;42.686;23.136;2023-09-08T08:10:00;12.50;;;3.20;;
8281;SDS011;25606;42.686;23.136;2023-09-08T08:12:27;8.48;;;2.45;;
8281;SDS011;25606;42.686;23.136;2023-09-08T08:14:54;14.98;;;3.97;;
8281;SDS011;25606;42.686;23.136;2023-09-08T08:17:23;11.07;;;3.10;;
8281;SDS011;25606;42.686;23.136;2023-09-08T08:19:51;9.00;;;2.63;;
8281;SDS011;25606;42.686;23.136;2023-09-08T08:22:18;7.87;;;2.33;;
8281;SDS011;25606;42.686;23.136;2023-09-08T08:24:46;7.13;;;2.37;;
8281;SDS011;25606;42.686;23.136;2023-09-08T08:27:13;6.90;;;2.30;;
8281;SDS011;25606;42.686;23.136;2023-09-08T08:29:40;4.47;;;1.80;;
8281;SDS011;25606;42.686;23.136;2023-09-08T08:32:07;6.07;;;2.03;;
8281;SDS011;25606;42.686;23.136;2023-09-08T08:34:37;6.27;;;2.23;;
8281;SDS011;25606;42.686;23.136;2023-09-08T08:37:05;7.43;;;2.53;;
8281;SDS011;25606;42.686;23.136;2023-09-08T08:39:32;9.00;;;2.87;;
8281;SDS011;25606;42.686;23.136;2023-09-08T08:42:06;8.97;;;2.80;;
8281;SDS011;25606;42.686;23.136;2023-09-08T08:44:34;6.30;;;1.97;;
8281;SDS011;25606;42.686;23.136;2023-09-08T08:47:02;7.83;;;2.37;;
8281;SDS011;25606;42.686;23.136;2023-09-08T08:49:29;11.40;;;3.70;;
8281;SDS011;25606;42.686;23.136;2023-09-08T08:51:59;6.67;;;2.00;;
8281;SDS011;25606;42.686;23.136;2023-09-08T08:54:32;7.67;;;2.37;;
8281;SDS011;25606;42.686;23.136;2023-09-08T08:57:00;9.80;;;2.73;;
8281;SDS011;25606;42.686;23.136;2023-09-08T08:59:28;9.27;;;2.93;;
8281;SDS011;25606;42.686;23.136;2023-09-08T09:01:55;11.20;;;3.17;;
8281;SDS011;25606;42.686;23.136;2023-09-08T09:04:22;10.13;;;3.00;;
8281;SDS011;25606;42.686;23.136;2023-09-08T09:06:51;9.87;;;2.83;;
8281;SDS011;25606;42.686;23.136;2023-09-08T09:09:21;6.23;;;2.10;;
8281;SDS011;25606;42.686;23.136;2023-09-08T09:11:48;7.20;;;2.20;;
8281;SDS011;25606;42.686;23.136;2023-09-08T09:14:16;6.50;;;2.03;;
8281;SDS011;25606;42.686;23.136;2023-09-08T09:16:44;10.50;;;2.90;;
8281;SDS011;25606;42.686;23.136;2023-09-08T09:19:17;5.57;;;1.87;;
8281;SDS011;25606;42.686;23.136;2023-09-08T09:21:50;7.90;;;2.43;;
8281;SDS011;25606;42.686;23.136;2023-09-08T09:24:29;7.63;;;2.23;;
8281;SDS011;25606;42.686;23.136;2023-09-08T09:26:58;6.70;;;2.00;;
8281;SDS011;25606;42.686;23.136;2023-09-08T09:29:25;8.03;;;2.43;;
8281;SDS011;25606;42.686;23.136;2023-09-08T09:31:54;11.03;;;2.93;;
8281;SDS011;25606;42.686;23.136;2023-09-08T09:34:22;8.20;;;2.50;;
8281;SDS011;25606;42.686;23.136;2023-09-08T09:36:50;9.40;;;2.60;;
8281;SDS011;25606;42.686;23.136;2023-09-08T09:39:18;9.03;;;2.47;;
8281;SDS011;25606;42.686;23.136;2023-09-08T09:41:47;11.07;;;2.97;;
8281;SDS011;25606;42.686;23.136;2023-09-08T09:44:14;9.20;;;2.45;;
8281;SDS011;25606;42.686;23.136;2023-09-08T09:46:44;9.20;;;2.87;;
8281;SDS011;25606;42.686;23.136;2023-09-08T09:49:12;8.33;;;2.33;;
8281;SDS011;25606;42.686;23.136;2023-09-08T09:51:40;9.50;;;2.63;;
8281;SDS011;25606;42.686;23.136;2023-09-08T09:54:08;8.85;;;2.35;;
8281;SDS011;25606;42.686;23.136;2023-09-08T09:56:36;13.88;;;3.33;;
8281;SDS011;25606;42.686;23.136;2023-09-08T09:59:05;7.97;;;2.13;;
8281;SDS011;25606;42.686;23.136;2023-09-08T10:01:34;11.93;;;3.00;;
8281;SDS011;25606;42.686;23.136;2023-09-08T10:04:02;13.48;;;3.17;;
8281;SDS011;25606;42.686;23.136;2023-09-08T10:06:31;18.33;;;4.47;;
8281;SDS011;25606;42.686;23.136;2023-09-08T10:08:58;13.77;;;3.38;;
8281;SDS011;25606;42.686;23.136;2023-09-08T10:11:28;11.45;;;2.78;;
8281;SDS011;25606;42.686;23.136;2023-09-08T10:13:57;17.23;;;3.78;;
8281;SDS011;25606;42.686;23.136;2023-09-08T10:16:27;9.82;;;2.25;;
8281;SDS011;25606;42.686;23.136;2023-09-08T10:18:55;17.65;;;4.05;;
8281;SDS011;25606;42.686;23.136;2023-09-08T10:21:23;15.77;;;3.65;;
8281;SDS011;25606;42.686;23.136;2023-09-08T10:23:59;17.85;;;4.53;;
8281;SDS011;25606;42.686;23.136;2023-09-08T10:26:44;15.65;;;3.88;;
8281;SDS011;25606;42.686;23.136;2023-09-08T10:29:13;13.98;;;3.53;;
8281;SDS011;25606;42.686;23.136;2023-09-08T10:31:42;16.33;;;4.25;;
8281;SDS011;25606;42.686;23.136;2023-09-08T10:34:11;18.15;;;4.47;;
8281;SDS011;25606;42.686;23.136;2023-09-08T10:36:38;22.83;;;5.53;;
8281;SDS011;25606;42.686;23.136;2023-09-08T10:39:28;26.55;;;9.80;;
8281;SDS011;25606;42.686;23.136;2023-09-08T10:44:41;31.02;;;15.15;;
8281;SDS011;25606;42.686;23.136;2023-09-08T10:47:10;30.20;;;13.27;;
8281;SDS011;25606;42.686;23.136;2023-09-08T10:49:38;33.03;;;13.35;;
8281;SDS011;25606;42.686;23.136;2023-09-08T10:52:07;39.80;;;19.83;;
8281;SDS011;25606;42.686;23.136;2023-09-08T10:54:41;38.55;;;21.08;;
8281;SDS011;25606;42.686;23.136;2023-09-08T10:57:12;32.17;;;16.95;;
8281;SDS011;25606;42.686;23.136;2023-09-08T10:59:40;31.50;;;11.95;;
8281;SDS011;25606;42.686;23.136;2023-09-08T11:02:07;46.88;;;20.15;;
8281;SDS011;25606;42.686;23.136;2023-09-08T11:04:56;30.83;;;11.07;;
8281;SDS011;25606;42.686;23.136;2023-09-08T11:07:24;40.00;;;12.88;;
8281;SDS011;25606;42.686;23.136;2023-09-08T11:09:51;33.72;;;7.97;;
8281;SDS011;25606;42.686;23.136;2023-09-08T11:12:18;147.48;;;131.63;;
8281;SDS011;25606;42.686;23.136;2023-09-08T11:14:48;29.65;;;8.82;;
8281;SDS011;25606;42.686;23.136;2023-09-08T11:17:15;41.20;;;18.10;;
8281;SDS011;25606;42.686;23.136;2023-09-08T11:19:44;51.80;;;37.28;;
8281;SDS011;25606;42.686;23.136;2023-09-08T11:22:13;61.33;;;46.05;;
8281;SDS011;25606;42.686;23.136;2023-09-08T11:24:41;67.88;;;55.92;;
8281;SDS011;25606;42.686;23.136;2023-09-08T11:27:08;98.07;;;86.55;;
8281;SDS011;25606;42.686;23.136;2023-09-08T11:29:36;76.95;;;54.20;;
8281;SDS011;25606;42.686;23.136;2023-09-08T11:32:06;102.95;;;91.45;;
8281;SDS011;25606;42.686;23.136;2023-09-08T11:34:33;93.72;;;81.72;;
8281;SDS011;25606;42.686;23.136;2023-09-08T11:37:05;97.22;;;81.85;;
8281;SDS011;25606;42.686;23.136;2023-09-08T11:39:36;81.13;;;48.72;;
8281;SDS011;25606;42.686;23.136;2023-09-08T11:42:04;102.15;;;91.07;;
8281;SDS011;25606;42.686;23.136;2023-09-08T11:44:32;102.13;;;94.35;;
8281;SDS011;25606;42.686;23.136;2023-09-08T11:46:59;92.05;;;78.80;;
8281;SDS011;25606;42.686;23.136;2023-09-08T11:49:33;89.95;;;80.32;;
8281;SDS011;25606;42.686;23.136;2023-09-08T11:52:00;141.32;;;128.40;;
8281;SDS011;25606;42.686;23.136;2023-09-08T11:54:28;109.38;;;97.35;;
8281;SDS011;25606;42.686;23.136;2023-09-08T11:56:58;58.08;;;34.38;;
8281;SDS011;25606;42.686;23.136;2023-09-08T11:59:26;82.95;;;68.30;;
8281;SDS011;25606;42.686;23.136;2023-09-08T12:01:54;70.47;;;50.53;;
8281;SDS011;25606;42.686;23.136;2023-09-08T12:04:22;50.20;;;40.38;;
8281;SDS011;25606;42.686;23.136;2023-09-08T12:06:51;63.90;;;31.05;;
8281;SDS011;25606;42.686;23.136;2023-09-08T12:09:20;80.30;;;62.80;;
8281;SDS011;25606;42.686;23.136;2023-09-08T12:11:48;98.15;;;88.20;;
8281;SDS011;25606;42.686;23.136;2023-09-08T12:14:17;107.85;;;88.95;;
8281;SDS011;25606;42.686;23.136;2023-09-08T12:16:44;149.88;;;133.57;;
8281;SDS011;25606;42.686;23.136;2023-09-08T12:21:54;96.78;;;83.30;;
8281;SDS011;25606;42.686;23.136;2023-09-08T12:27:04;127.13;;;112.90;;
8281;SDS011;25606;42.686;23.136;2023-09-08T12:29:33;131.82;;;119.50;;
8281;SDS011;25606;42.686;23.136;2023-09-08T12:34:28;191.05;;;166.48;;
8281;SDS011;25606;42.686;23.136;2023-09-08T12:36:55;86.55;;;66.55;;
8281;SDS011;25606;42.686;23.136;2023-09-08T12:39:22;140.60;;;126.70;;
8281;SDS011;25606;42.686;23.136;2023-09-08T12:41:50;110.32;;;98.53;;
8281;SDS011;25606;42.686;23.136;2023-09-08T12:44:17;145.55;;;131.13;;
8281;SDS011;25606;42.686;23.136;2023-09-08T12:46:47;162.63;;;147.40;;
8281;SDS011;25606;42.686;23.136;2023-09-08T12:49:14;164.70;;;150.27;;
8281;SDS011;25606;42.686;23.136;2023-09-08T12:51:41;160.88;;;140.88;;
8281;SDS011;25606;42.686;23.136;2023-09-08T12:54:09;137.65;;;123.72;;
8281;SDS011;25606;42.686;23.136;2023-09-08T12:56:37;162.15;;;148.18;;
8281;SDS011;25606;42.686;23.136;2023-09-08T12:59:04;141.43;;;128.45;;
8281;SDS011;25606;42.686;23.136;2023-09-08T13:01:31;101.25;;;91.28;;
8281;SDS011;25606;42.686;23.136;2023-09-08T13:04:00;91.80;;;80.28;;
8281;SDS011;25606;42.686;23.136;2023-09-08T13:06:27;52.13;;;25.13;;
8281;SDS011;25606;42.686;23.136;2023-09-08T13:08:55;40.72;;;12.32;;
8281;SDS011;25606;42.686;23.136;2023-09-08T13:11:24;49.70;;;22.42;;
8281;SDS011;25606;42.686;23.136;2023-09-08T13:13:51;52.63;;;35.65;;
8281;SDS011;25606;42.686;23.136;2023-09-08T13:16:18;31.15;;;13.38;;
8281;SDS011;25606;42.686;23.136;2023-09-08T13:18:46;23.20;;;5.35;;
8281;SDS011;25606;42.686;23.136;2023-09-08T13:21:15;24.75;;;5.18;;
8281;SDS011;25606;42.686;23.136;2023-09-08T13:23:43;24.20;;;5.10;;
8281;SDS011;25606;42.686;23.136;2023-09-08T13:26:10;22.05;;;5.18;;
8281;SDS011;25606;42.686;23.136;2023-09-08T13:28:37;44.05;;;10.55;;
8281;SDS011;25606;42.686;23.136;2023-09-08T13:31:05;28.50;;;5.93;;
8281;SDS011;25606;42.686;23.136;2023-09-08T13:33:32;23.73;;;8.70;;
8281;SDS011;25606;42.686;23.136;2023-09-08T13:35:59;33.67;;;10.90;;
8281;SDS011;25606;42.686;23.136;2023-09-08T13:38:28;22.48;;;5.28;;
8281;SDS011;25606;42.686;23.136;2023-09-08T13:40:55;23.60;;;5.07;;
8281;SDS011;25606;42.686;23.136;2023-09-08T13:43:22;24.08;;;5.18;;
8281;SDS011;25606;42.686;23.136;2023-09-08T13:45:50;23.52;;;5.18;;
8281;SDS011;25606;42.686;23.136;2023-09-08T13:48:18;24.40;;;5.22;;
8281;SDS011;25606;42.686;23.136;2023-09-08T13:50:45;33.00;;;6.28;;
8281;SDS011;25606;42.686;23.136;2023-09-08T13:53:12;21.92;;;4.45;;
8281;SDS011;25606;42.686;23.136;2023-09-08T13:55:41;17.02;;;3.83;;
8281;SDS011;25606;42.686;23.136;2023-09-08T13:58:08;22.60;;;4.47;;
8281;SDS011;25606;42.686;23.136;2023-09-08T14:00:36;18.13;;;3.90;;
8281;SDS011;25606;42.686;23.136;2023-09-08T14:03:04;32.17;;;6.18;;
8281;SDS011;25606;42.686;23.136;2023-09-08T14:05:32;22.67;;;4.72;;
8281;SDS011;25606;42.686;23.136;2023-09-08T14:07:59;31.50;;;6.00;;
8281;SDS011;25606;42.686;23.136;2023-09-08T14:10:26;24.38;;;4.97;;
8281;SDS011;25606;42.686;23.136;2023-09-08T14:12:55;32.20;;;6.07;;
8281;SDS011;25606;42.686;23.136;2023-09-08T14:15:22;18.95;;;4.10;;
8281;SDS011;25606;42.686;23.136;2023-09-08T14:17:49;24.50;;;4.70;;
8281;SDS011;25606;42.686;23.136;2023-09-08T14:20:18;20.90;;;4.40;;
8281;SDS011;25606;42.686;23.136;2023-09-08T14:22:45;13.93;;;3.05;;
8281;SDS011;25606;42.686;23.136;2023-09-08T14:25:12;27.00;;;5.43;;
8281;SDS011;25606;42.686;23.136;2023-09-08T14:27:39;19.30;;;4.18;;
8281;SDS011;25606;42.686;23.136;2023-09-08T14:30:08;37.92;;;7.03;;
8281;SDS011;25606;42.686;23.136;2023-09-08T14:32:36;28.63;;;5.65;;
8281;SDS011;25606;42.686;23.136;2023-09-08T14:35:03;32.88;;;6.05;;
8281;SDS011;25606;42.686;23.136;2023-09-08T14:37:30;21.98;;;4.72;;
8281;SDS011;25606;42.686;23.136;2023-09-08T14:39:58;28.38;;;5.28;;
8281;SDS011;25606;42.686;23.136;2023-09-08T14:42:25;40.75;;;10.38;;
8281;SDS011;25606;42.686;23.136;2023-09-08T14:44:52;26.70;;;5.57;;
8281;SDS011;25606;42.686;23.136;2023-09-08T14:47:21;25.10;;;5.43;;
8281;SDS011;25606;42.686;23.136;2023-09-08T14:49:48;15.48;;;3.58;;
8281;SDS011;25606;42.686;23.136;2023-09-08T14:52:15;16.13;;;3.75;;
8281;SDS011;25606;42.686;23.136;2023-09-08T14:54:45;12.27;;;2.95;;
8281;SDS011;25606;42.686;23.136;2023-09-08T14:57:12;15.10;;;3.72;;
8281;SDS011;25606;42.686;23.136;2023-09-08T14:59:40;20.63;;;4.80;;